createdAt,value
2019-05-16T00:00:29.011Z,3.70
2019-05-16T00:02:58.872Z,4.45
2019-05-16T00:05:28.101Z,4.00
2019-05-16T00:07:58.953Z,3.80
2019-05-16T00:10:28.170Z,3.70
2019-05-16T00:12:59.511Z,3.75
2019-05-16T00:15:28.741Z,3.70
2019-05-16T00:17:58.362Z,3.87
2019-05-16T00:20:28.362Z,4.20
2019-05-16T00:22:58.964Z,3.70
2019-05-16T00:25:28.638Z,4.17
2019-05-16T00:27:58.665Z,3.90
2019-05-16T00:30:28.719Z,3.70
2019-05-16T00:32:58.835Z,4.20
2019-05-16T00:35:28.535Z,3.80
2019-05-16T00:37:59.012Z,4.08
2019-05-16T00:40:27.937Z,3.45
2019-05-16T00:42:58.973Z,4.05
2019-05-16T00:45:29.442Z,3.40
2019-05-16T00:47:58.532Z,3.27
2019-05-16T00:50:28.797Z,3.20
2019-05-16T00:52:58.958Z,3.40
2019-05-16T00:55:28.632Z,4.00
2019-05-16T00:57:58.332Z,3.40
2019-05-16T01:00:45.430Z,3.72
2019-05-16T01:03:14.326Z,3.52
2019-05-16T01:05:43.684Z,3.25
2019-05-16T01:08:12.669Z,3.35
2019-05-16T01:10:41.454Z,3.42
2019-05-16T01:13:10.138Z,4.10
2019-05-16T01:15:38.846Z,3.37
2019-05-16T01:18:08.117Z,3.47
2019-05-16T01:20:38.649Z,3.50
2019-05-16T01:23:08.935Z,3.15
2019-05-16T01:25:38.821Z,3.40
2019-05-16T01:28:08.799Z,3.20
2019-05-16T01:30:38.080Z,3.98
2019-05-16T01:33:08.896Z,3.35
2019-05-16T01:35:38.576Z,3.20
2019-05-16T01:38:08.657Z,3.62
2019-05-16T01:40:38.730Z,3.20
2019-05-16T01:43:08.586Z,3.37
2019-05-16T01:45:38.426Z,3.33
2019-05-16T01:48:08.271Z,4.25
2019-05-16T01:50:38.815Z,3.20
2019-05-16T01:53:08.696Z,3.45
2019-05-16T01:55:38.166Z,3.20
2019-05-16T01:58:08.036Z,3.40
2019-05-16T02:00:47.818Z,3.30
2019-05-16T02:03:08.284Z,3.40
2019-05-16T02:05:38.722Z,3.90
2019-05-16T02:08:08.825Z,3.55
2019-05-16T02:10:37.992Z,3.70
2019-05-16T02:13:08.550Z,3.40
2019-05-16T02:15:38.308Z,3.37
2019-05-16T02:18:08.180Z,3.50
2019-05-16T02:20:39.279Z,3.20
2019-05-16T02:23:08.022Z,3.72
2019-05-16T02:25:38.125Z,3.40
2019-05-16T02:28:07.157Z,3.75
2019-05-16T02:30:35.880Z,3.47
2019-05-16T02:33:04.456Z,3.30
2019-05-16T02:35:32.990Z,3.50
2019-05-16T02:38:01.539Z,3.47
2019-05-16T02:40:31.295Z,3.55
2019-05-16T02:43:01.545Z,3.58
2019-05-16T02:45:32.589Z,3.95
2019-05-16T02:48:01.429Z,3.60
2019-05-16T02:50:31.582Z,3.50
2019-05-16T02:53:01.521Z,3.55
2019-05-16T02:55:30.929Z,3.40
2019-05-16T02:58:00.894Z,3.60
2019-05-16T03:00:42.631Z,3.52
2019-05-16T03:03:11.922Z,3.92
2019-05-16T03:05:42.134Z,3.70
2019-05-16T03:08:13.184Z,3.67
2019-05-16T03:10:41.871Z,4.40
2019-05-16T03:13:11.395Z,4.12
2019-05-16T03:15:41.110Z,4.03
2019-05-16T03:18:12.291Z,3.70
2019-05-16T03:20:42.068Z,4.10
2019-05-16T03:23:11.491Z,3.70
2019-05-16T03:25:41.762Z,3.77
2019-05-16T03:28:11.222Z,4.00
2019-05-16T03:30:44.599Z,3.80
2019-05-16T03:33:19.236Z,4.10
2019-05-16T03:35:44.589Z,3.60
2019-05-16T03:38:12.114Z,4.22
2019-05-16T03:40:41.344Z,3.58
2019-05-16T03:43:11.553Z,3.65
2019-05-16T03:45:41.695Z,3.98
2019-05-16T03:48:11.998Z,3.65
2019-05-16T03:50:41.390Z,3.72
2019-05-16T03:53:11.694Z,3.80
2019-05-16T03:55:40.908Z,4.15
2019-05-16T03:58:11.707Z,3.67
2019-05-16T04:00:52.055Z,4.03
2019-05-16T04:03:21.218Z,3.37
2019-05-16T04:05:52.705Z,3.60
2019-05-16T04:08:24.926Z,3.77
2019-05-16T04:10:52.093Z,3.58
2019-05-16T04:13:21.740Z,4.10
2019-05-16T04:15:52.379Z,3.70
2019-05-16T04:18:21.924Z,3.50
2019-05-16T04:20:52.477Z,3.72
2019-05-16T04:23:21.522Z,3.90
2019-05-16T04:25:52.120Z,3.60
2019-05-16T04:28:22.083Z,3.42
2019-05-16T04:30:51.571Z,4.05
2019-05-16T04:33:22.215Z,3.60
2019-05-16T04:35:52.487Z,3.50
2019-05-16T04:38:34.387Z,3.67
2019-05-16T04:40:52.224Z,3.47
2019-05-16T04:43:22.194Z,4.08
2019-05-16T04:45:52.254Z,3.60
2019-05-16T04:48:22.283Z,4.10
2019-05-16T04:50:52.306Z,3.67
2019-05-16T04:53:21.471Z,3.60
2019-05-16T04:55:51.895Z,3.42
2019-05-16T04:58:23.171Z,3.40
2019-05-16T05:00:52.118Z,3.40
2019-05-16T05:03:21.857Z,3.85
2019-05-16T05:05:51.273Z,4.15
2019-05-16T05:08:22.034Z,3.40
2019-05-16T05:10:51.603Z,3.60
2019-05-16T05:13:22.072Z,3.60
2019-05-16T05:15:51.258Z,3.40
2019-05-16T05:18:21.345Z,3.33
2019-05-16T05:20:52.531Z,3.60
2019-05-16T05:23:21.233Z,4.20
2019-05-16T05:25:51.340Z,3.35
2019-05-16T05:28:21.102Z,3.30
2019-05-16T05:30:50.448Z,3.40
2019-05-16T05:33:21.026Z,3.15
2019-05-16T05:35:50.684Z,3.33
2019-05-16T05:38:21.367Z,3.50
2019-05-16T05:40:51.059Z,4.10
2019-05-16T05:43:21.461Z,3.22
2019-05-16T05:45:51.180Z,3.40
2019-05-16T05:48:21.751Z,3.33
2019-05-16T05:50:51.128Z,3.40
2019-05-16T05:53:20.863Z,3.40
2019-05-16T05:55:51.318Z,3.50
2019-05-16T05:58:20.929Z,4.40
2019-05-16T06:00:51.908Z,3.30
2019-05-16T06:03:22.362Z,3.15
2019-05-16T06:05:50.566Z,3.37
2019-05-16T06:08:20.439Z,3.22
2019-05-16T06:10:50.347Z,3.40
2019-05-16T06:13:20.602Z,3.65
2019-05-16T06:15:50.935Z,4.10
2019-05-16T06:18:19.941Z,3.25
2019-05-16T06:20:51.150Z,3.15
2019-05-16T06:23:20.575Z,3.35
2019-05-16T06:25:50.771Z,3.42
2019-05-16T06:28:20.855Z,3.55
2019-05-16T06:30:51.403Z,3.70
2019-05-16T06:33:20.376Z,4.33
2019-05-16T06:35:51.461Z,3.40
2019-05-16T06:38:20.975Z,3.67
2019-05-16T06:40:52.565Z,3.37
2019-05-16T06:43:20.633Z,3.58
2019-05-16T06:45:51.252Z,3.58
2019-05-16T06:48:21.150Z,3.33
2019-05-16T06:50:51.466Z,4.00
2019-05-16T06:53:21.039Z,3.37
2019-05-16T06:55:50.181Z,3.50
2019-05-16T06:58:21.750Z,3.47
2019-05-16T07:00:52.268Z,3.37
2019-05-16T07:03:20.449Z,3.40
2019-05-16T07:05:50.383Z,3.33
2019-05-16T07:08:20.502Z,3.83
2019-05-16T07:10:50.716Z,3.33
2019-05-16T07:13:19.854Z,3.45
2019-05-16T07:15:50.149Z,3.33
2019-05-16T07:18:20.808Z,2.83
2019-05-16T07:20:50.989Z,3.00
2019-05-16T07:23:20.923Z,3.02
2019-05-16T07:25:50.644Z,3.40
2019-05-16T07:28:20.830Z,3.00
2019-05-16T07:30:50.129Z,3.42
2019-05-16T07:33:21.156Z,3.05
2019-05-16T07:35:51.201Z,3.00
2019-05-16T07:38:20.239Z,3.27
2019-05-16T07:40:51.208Z,3.33
2019-05-16T07:43:20.566Z,3.67
2019-05-16T07:45:51.282Z,3.12
2019-05-16T07:48:21.622Z,3.65
2019-05-16T07:50:50.350Z,3.33
2019-05-16T07:53:21.499Z,3.83
2019-05-16T07:55:50.912Z,3.55
2019-05-16T07:58:21.971Z,3.60
2019-05-16T08:01:02.091Z,3.80
2019-05-16T08:03:20.490Z,3.50
2019-05-16T08:05:51.520Z,3.70
2019-05-16T08:08:23.161Z,3.50
2019-05-16T08:10:51.230Z,3.45
2019-05-16T08:13:21.174Z,3.17
2019-05-16T08:15:50.596Z,3.35
2019-05-16T08:18:21.304Z,3.52
2019-05-16T08:20:52.193Z,3.20
2019-05-16T08:23:22.389Z,4.00
2019-05-16T08:25:51.025Z,3.52
2019-05-16T08:28:21.479Z,4.30
2019-05-16T08:35:51.585Z,4.55
2019-05-16T08:38:21.791Z,3.65
2019-05-16T08:41:06.435Z,3.83
2019-05-16T08:43:21.921Z,3.40
2019-05-16T08:45:51.795Z,3.67
2019-05-16T08:48:23.165Z,3.55
2019-05-16T08:53:21.784Z,3.42
2019-05-16T08:55:50.873Z,3.85
2019-05-16T08:58:22.775Z,4.12
2019-05-16T09:00:55.178Z,3.90
2019-05-16T09:03:22.157Z,4.00
2019-05-16T09:05:53.574Z,3.40
2019-05-16T09:08:21.165Z,3.50
2019-05-16T09:10:10.999Z,5.33
2019-05-16T09:10:39.201Z,4.60
2019-05-16T09:10:41.206Z,3.40
2019-05-16T09:11:00.737Z,3.50
2019-05-16T09:13:20.035Z,3.60
2019-05-16T09:15:48.842Z,4.20
2019-05-16T09:18:18.004Z,3.65
2019-05-16T09:20:49.924Z,3.95
2019-05-16T09:23:18.008Z,3.60
2019-05-16T09:25:48.908Z,3.92
2019-05-16T09:28:17.330Z,3.40
2019-05-16T09:30:46.934Z,3.72
2019-05-16T09:33:18.388Z,4.40
2019-05-16T09:35:47.698Z,3.80
2019-05-16T09:38:20.369Z,3.50
2019-05-16T09:40:47.990Z,3.50
2019-05-16T09:43:17.936Z,3.30
2019-05-16T09:45:47.353Z,3.55
2019-05-16T09:48:18.976Z,3.37
2019-05-16T09:50:47.043Z,4.20
2019-05-16T09:53:16.993Z,3.27
2019-05-16T09:55:46.974Z,3.17
2019-05-16T09:58:18.027Z,3.52
2019-05-16T10:00:47.626Z,3.37
2019-05-16T10:03:20.513Z,3.60
2019-05-16T10:05:47.067Z,3.70
2019-05-16T10:08:17.370Z,4.28
2019-05-16T10:10:46.145Z,3.50
2019-05-16T10:13:14.750Z,3.33
2019-05-16T10:15:43.265Z,3.80
2019-05-16T10:18:11.887Z,3.90
2019-05-16T10:20:40.460Z,3.60
2019-05-16T10:23:14.669Z,3.67
2019-05-16T10:25:39.381Z,4.08
2019-05-16T10:28:08.257Z,3.92
2019-05-16T10:30:37.679Z,4.30
2019-05-16T10:33:07.086Z,3.87
2019-05-16T10:35:37.306Z,3.85
2019-05-16T10:38:06.054Z,4.40
2019-05-16T10:40:36.810Z,4.33
2019-05-16T10:43:07.123Z,3.83
2019-05-16T10:45:36.929Z,4.00
2019-05-16T10:48:05.635Z,5.00
2019-05-16T10:50:36.806Z,4.78
2019-05-16T10:53:28.023Z,4.25
2019-05-16T10:55:36.783Z,4.20
2019-05-16T10:58:07.357Z,4.40
2019-05-16T11:01:05.485Z,4.55
2019-05-16T11:03:06.651Z,4.35
2019-05-16T11:05:38.878Z,5.35
2019-05-16T11:08:08.157Z,4.35
2019-05-16T11:10:37.290Z,3.92
2019-05-16T11:13:08.143Z,4.10
2019-05-16T11:15:37.410Z,4.20
2019-05-16T11:18:06.824Z,4.50
2019-05-16T11:20:37.395Z,4.40
2019-05-16T11:23:07.968Z,5.15
2019-05-16T11:25:36.789Z,4.55
2019-05-16T11:28:07.334Z,4.50
2019-05-16T11:30:37.530Z,4.15
2019-05-16T11:33:07.558Z,4.62
2019-05-16T11:35:38.155Z,4.30
2019-05-16T11:38:07.315Z,4.40
2019-05-16T11:40:35.967Z,4.90
2019-05-16T11:43:11.387Z,5.25
2019-05-16T11:45:36.755Z,4.17
2019-05-16T11:48:05.416Z,4.33
2019-05-16T11:50:37.036Z,4.78
2019-05-16T11:53:07.138Z,5.42
2019-05-16T11:55:46.273Z,5.17
2019-05-16T11:58:06.815Z,5.47
2019-05-16T12:00:37.310Z,4.67
2019-05-16T12:03:06.009Z,4.50
2019-05-16T12:05:37.135Z,4.40
2019-05-16T12:08:07.726Z,4.60
2019-05-16T12:10:36.321Z,4.50
2019-05-16T12:13:09.029Z,4.33
2019-05-16T12:15:36.663Z,5.00
2019-05-16T12:18:08.335Z,4.42
2019-05-16T12:20:35.800Z,4.83
2019-05-16T12:23:07.732Z,4.25
2019-05-16T12:25:36.797Z,4.40
2019-05-16T12:28:08.177Z,4.00
2019-05-16T12:30:37.703Z,4.65
2019-05-16T12:33:07.327Z,4.92
2019-05-16T12:35:36.949Z,3.90
2019-05-16T12:38:08.161Z,4.33
2019-05-16T12:40:37.567Z,4.17
2019-05-16T12:43:07.743Z,4.40
2019-05-16T12:45:38.638Z,4.62
2019-05-16T12:48:07.148Z,4.25
2019-05-16T12:50:38.865Z,4.78
2019-05-16T12:53:08.046Z,4.58
2019-05-16T12:55:36.927Z,4.70
2019-05-16T12:58:13.704Z,4.83
2019-05-16T13:00:37.115Z,4.58
2019-05-16T13:03:07.163Z,4.22
2019-05-16T13:05:37.690Z,4.12
2019-05-16T13:08:06.250Z,4.72
2019-05-16T13:10:37.717Z,4.47
2019-05-16T13:13:07.552Z,4.42
2019-05-16T13:15:37.923Z,4.50
2019-05-16T13:18:07.871Z,4.80
2019-05-16T13:20:39.251Z,4.60
2019-05-16T13:23:14.587Z,4.33
2019-05-16T13:25:37.120Z,5.03
2019-05-16T13:28:08.150Z,4.50
2019-05-16T13:30:37.791Z,4.83
2019-05-16T13:33:07.242Z,4.42
2019-05-16T13:35:37.026Z,4.60
2019-05-16T13:38:07.847Z,4.42
2019-05-16T13:40:36.276Z,4.62
2019-05-16T13:43:09.417Z,5.95
2019-05-16T13:45:37.498Z,5.00
2019-05-16T13:48:07.849Z,5.53
2019-05-16T13:50:37.268Z,5.30
2019-05-16T13:53:07.868Z,5.15
2019-05-16T13:55:37.813Z,5.08
2019-05-16T13:58:07.777Z,5.28
2019-05-16T14:00:37.506Z,5.80
2019-05-16T14:03:07.450Z,5.53
2019-05-16T14:05:37.951Z,5.00
2019-05-16T14:08:07.141Z,5.00
2019-05-16T14:10:37.474Z,5.30
2019-05-16T14:13:07.576Z,5.55
2019-05-16T14:15:36.893Z,5.33
2019-05-16T14:18:07.822Z,5.35
2019-05-16T14:20:37.672Z,4.72
2019-05-16T14:23:08.524Z,5.50
2019-05-16T14:25:37.942Z,5.10
2019-05-16T14:28:07.807Z,4.70
2019-05-16T14:30:37.410Z,4.67
2019-05-16T14:33:13.556Z,5.47
2019-05-16T14:35:37.592Z,5.60
2019-05-16T14:38:06.605Z,5.00
2019-05-16T14:40:37.362Z,5.67
2019-05-16T14:43:08.273Z,5.20
2019-05-16T14:45:37.164Z,5.20
2019-05-16T14:48:07.445Z,4.80
2019-05-16T14:50:37.583Z,5.00
2019-05-16T14:53:07.500Z,5.65
2019-05-16T14:55:38.155Z,4.97
2019-05-16T14:58:07.612Z,4.87
2019-05-16T15:00:38.300Z,4.72
2019-05-16T15:03:08.329Z,5.25
2019-05-16T15:05:42.428Z,4.92
2019-05-16T15:08:08.572Z,4.95
2019-05-16T15:10:37.868Z,5.50
2019-05-16T15:13:07.915Z,4.87
2019-05-16T15:15:37.629Z,5.25
2019-05-16T15:18:08.315Z,5.10
2019-05-16T15:20:37.120Z,5.20
2019-05-16T15:23:07.628Z,5.50
2019-05-16T15:25:37.525Z,5.05
2019-05-16T15:28:07.554Z,5.47
2019-05-16T15:30:39.101Z,5.40
2019-05-16T15:33:08.636Z,5.80
2019-05-16T15:35:38.226Z,5.45
2019-05-16T15:38:07.929Z,5.12
2019-05-16T15:40:37.698Z,5.03
2019-05-16T15:43:08.000Z,5.25
2019-05-16T15:45:44.192Z,5.10
2019-05-16T15:48:13.935Z,5.90
2019-05-16T15:50:44.518Z,5.60
2019-05-16T15:53:13.138Z,6.10
2019-05-16T15:56:00.019Z,5.45
2019-05-16T15:58:28.695Z,5.20
2019-05-16T16:00:58.124Z,5.37
2019-05-16T16:03:27.356Z,5.92
2019-05-16T16:05:56.436Z,5.10
2019-05-16T16:08:28.207Z,5.90
2019-05-16T16:10:55.489Z,5.62
2019-05-16T16:13:26.619Z,5.90
2019-05-16T16:15:55.325Z,5.55
2019-05-16T16:18:27.021Z,5.58
2019-05-16T16:20:57.113Z,5.95
2019-05-16T16:23:27.250Z,5.53
2019-05-16T16:25:59.701Z,5.67
2019-05-16T16:28:27.106Z,5.35
2019-05-16T16:30:56.905Z,5.10
2019-05-16T16:33:29.328Z,5.40
2019-05-16T16:35:57.206Z,4.97
2019-05-16T16:38:25.995Z,5.65
2019-05-16T16:40:57.163Z,5.40
2019-05-16T16:43:24.968Z,5.62
2019-05-16T16:46:06.237Z,5.10
2019-05-16T16:48:26.394Z,5.05
2019-05-16T16:50:54.244Z,5.97
2019-05-16T16:53:22.762Z,5.80
2019-05-16T16:55:51.880Z,6.87
2019-05-16T16:58:20.826Z,5.37
2019-05-16T17:00:49.517Z,6.53
2019-05-16T17:03:18.082Z,7.00
2019-05-16T17:05:46.659Z,6.58
2019-05-16T17:08:16.766Z,6.40
2019-05-16T17:10:47.632Z,6.65
2019-05-16T17:13:16.935Z,7.25
2019-05-16T17:15:47.267Z,6.70
2019-05-16T17:18:17.423Z,7.33
2019-05-16T17:20:47.690Z,9.23
2019-05-16T17:23:17.344Z,6.75
2019-05-16T17:25:47.214Z,7.17
2019-05-16T17:28:17.355Z,7.42
2019-05-16T17:30:47.093Z,6.85
2019-05-16T17:33:18.226Z,6.28
2019-05-16T17:35:48.846Z,7.05
2019-05-16T17:38:17.355Z,7.83
2019-05-16T17:40:46.535Z,7.05
2019-05-16T17:43:16.476Z,6.95
2019-05-16T17:45:47.076Z,6.35
2019-05-16T17:48:17.551Z,6.80
2019-05-16T17:50:47.267Z,6.40
2019-05-16T17:53:17.440Z,6.90
2019-05-16T17:55:47.839Z,6.62
2019-05-16T17:58:17.925Z,6.53
2019-05-16T18:00:47.533Z,7.83
2019-05-16T18:03:17.341Z,7.33
2019-05-16T18:05:47.666Z,7.25
2019-05-16T18:08:17.968Z,7.62
2019-05-16T18:10:48.489Z,7.58
2019-05-16T18:13:18.494Z,7.47
2019-05-16T18:15:48.674Z,7.72
2019-05-16T18:18:18.985Z,7.80
2019-05-16T18:20:57.901Z,7.65
2019-05-16T18:23:22.643Z,8.15
2019-05-16T18:25:53.722Z,7.62
2019-05-16T18:28:26.790Z,8.43
2019-05-16T18:30:58.215Z,7.97
2019-05-16T18:33:30.057Z,7.55
2019-05-16T18:36:57.082Z,8.83
2019-05-16T18:39:28.808Z,7.62
2019-05-16T18:42:00.779Z,8.40
2019-05-16T18:44:32.881Z,8.58
2019-05-16T18:47:10.457Z,8.53
2019-05-16T18:49:38.775Z,8.45
2019-05-16T18:52:10.061Z,8.65
2019-05-16T18:54:41.517Z,9.20
2019-05-16T18:58:08.318Z,8.53
2019-05-16T19:00:38.645Z,8.88
2019-05-16T19:03:09.421Z,8.55
2019-05-16T19:05:40.021Z,9.05
2019-05-16T19:08:10.438Z,9.53
2019-05-16T19:10:40.261Z,9.93
2019-05-16T19:13:12.428Z,9.38
2019-05-16T19:15:41.887Z,10.05
2019-05-16T19:21:56.722Z,10.32
2019-05-16T19:24:28.561Z,10.35
2019-05-16T19:26:59.297Z,10.05
2019-05-16T19:29:29.605Z,11.08
2019-05-16T19:32:00.798Z,10.72
2019-05-16T19:34:31.907Z,11.12
2019-05-16T19:37:03.172Z,11.35
2019-05-16T19:39:37.049Z,10.70
2019-05-16T19:45:49.380Z,11.05
2019-05-16T19:48:20.455Z,10.98
2019-05-16T19:50:51.542Z,11.28
2019-05-16T19:53:21.908Z,11.22
2019-05-16T19:55:56.386Z,12.40
2019-05-16T19:58:26.900Z,12.20
2019-05-16T20:00:58.285Z,11.93
2019-05-16T20:03:29.531Z,12.55
2019-05-16T20:06:54.022Z,11.12
2019-05-16T20:09:26.868Z,12.50
2019-05-16T20:11:59.175Z,13.13
2019-05-16T20:14:32.071Z,12.65
2019-05-16T20:17:03.612Z,13.08
2019-05-16T20:19:36.443Z,13.18
2019-05-16T20:22:07.890Z,14.00
2019-05-16T20:24:38.610Z,13.75
2019-05-16T20:27:19.602Z,12.85
2019-05-16T20:29:51.581Z,12.95
2019-05-16T20:32:22.093Z,13.98
2019-05-16T20:34:51.861Z,15.15
2019-05-16T20:37:21.620Z,13.83
2019-05-16T20:39:51.868Z,15.18
2019-05-16T20:42:21.429Z,13.95
2019-05-16T20:44:51.382Z,14.47
2019-05-16T20:47:22.715Z,14.73
2019-05-16T20:49:52.060Z,15.78
2019-05-16T20:52:21.263Z,15.85
2019-05-16T20:54:51.160Z,15.38
2019-05-16T20:57:20.807Z,16.12
2019-05-16T20:59:50.189Z,15.32
2019-05-16T21:02:19.665Z,17.10
2019-05-16T21:04:49.601Z,15.95
2019-05-16T21:07:19.707Z,16.85
2019-05-16T21:09:49.382Z,16.42
2019-05-16T21:12:19.949Z,16.97
2019-05-16T21:14:49.237Z,17.02
2019-05-16T21:17:18.219Z,15.95
2019-05-16T21:19:48.281Z,16.85
2019-05-16T21:22:19.304Z,17.25
2019-05-16T21:24:48.435Z,17.52
2019-05-16T21:27:19.046Z,17.15
2019-05-16T21:29:47.922Z,16.77
2019-05-16T21:32:16.656Z,17.92
2019-05-16T21:34:46.929Z,17.95
2019-05-16T21:37:17.976Z,16.55
2019-05-16T21:39:47.503Z,17.80
2019-05-16T21:42:16.657Z,17.30
2019-05-16T21:44:46.676Z,18.25
2019-05-16T21:47:16.921Z,17.48
2019-05-16T21:49:47.189Z,17.73
2019-05-16T21:52:16.287Z,16.82
2019-05-16T21:54:47.067Z,18.17
2019-05-16T21:57:19.625Z,17.48
2019-05-16T21:59:47.744Z,18.62
2019-05-16T22:02:16.858Z,18.42
2019-05-16T22:04:47.369Z,20.00
2019-05-16T22:07:16.588Z,19.07
2019-05-16T22:09:46.584Z,20.05
2019-05-16T22:12:17.353Z,19.42
2019-05-16T22:14:48.663Z,19.70
2019-05-16T22:17:17.291Z,19.25
2019-05-16T22:19:46.884Z,19.85
2019-05-16T22:22:16.539Z,19.92
2019-05-16T22:24:46.172Z,20.82
2019-05-16T22:27:17.324Z,21.60
2019-05-16T22:29:45.781Z,21.15
2019-05-16T22:32:16.443Z,21.60
2019-05-16T22:34:44.854Z,21.87
2019-05-16T22:37:13.447Z,22.20
2019-05-16T22:39:41.893Z,20.55
2019-05-16T22:42:10.427Z,22.85
2019-05-16T22:44:38.950Z,21.77
2019-05-16T22:47:07.484Z,23.05
2019-05-16T22:49:36.954Z,21.82
2019-05-16T22:52:06.635Z,21.77
2019-05-16T22:54:37.077Z,22.40
2019-05-16T22:57:06.672Z,22.52
2019-05-16T22:59:35.445Z,22.42
2019-05-16T23:02:10.662Z,22.35
2019-05-16T23:04:36.688Z,23.38
2019-05-16T23:07:06.998Z,21.07
2019-05-16T23:09:36.587Z,22.45
2019-05-16T23:12:07.078Z,22.60
2019-05-16T23:14:35.677Z,22.00
2019-05-16T23:17:06.520Z,22.45
2019-05-16T23:19:36.758Z,22.98
2019-05-16T23:22:07.368Z,24.23
2019-05-16T23:24:36.941Z,23.92
2019-05-16T23:27:06.962Z,23.90
2019-05-16T23:29:36.768Z,25.08
2019-05-16T23:32:07.364Z,23.92
2019-05-16T23:34:37.289Z,25.10
2019-05-16T23:37:06.565Z,26.02
2019-05-16T23:39:35.292Z,24.85
2019-05-16T23:42:06.230Z,24.67
2019-05-16T23:44:33.986Z,25.45
2019-05-16T23:47:02.599Z,26.77
2019-05-16T23:49:31.188Z,26.35
2019-05-16T23:51:59.712Z,24.82
2019-05-16T23:54:28.171Z,25.90
2019-05-16T23:56:57.270Z,26.05
2019-05-16T23:59:27.707Z,26.02
